ダッカ の空港の天気 - METARとTAF

シャージャラル国際空港(ダッカ) ( VGHS / DAC ) - バングラデシュ ダッカ
飛行場実況気象(Metar)
観測時間06/21 10:00 BDT (06/21 04:00 UTC)
風向・風速南西 4m/s
視程3500m
天気現象煙霧
全天の4割程度の雲 雲底高度 370m
少しの雲 雲底高度 760m
全天の8割程度の雲 雲底高度 3050m
気温33℃
湿度75%
気圧1004hPa
METARVGHS 210400Z 22008KT 3500 HZ SCT012 FEW025CB BKN100 33/28 Q1004 TEMPO TSRA
過去の天気等 Google飛行場航空写真 Wunderground天気予報

過去48時間のMETAR

飛行場予報(TAF)
発表時間: 6/21 05:00 BDT (6/20 23:00 UTC)
予報対象時間: 21日6時 BDT ~ 22日12時 BDT
風向・風速南南東 3m/s
視程3500m
天気現象煙霧
全天の4割程度の雲 雲底高度 370m
全天の8割程度の雲 雲底高度 3050m
21日10時 BDT ~ 21日12時 BDT に徐々に
風向・風速南 5m/s
視程4000m
天気現象煙霧
全天の4割程度の雲 雲底高度 460m
全天の8割程度の雲 雲底高度 3050m
21日6時 BDT ~ 21日18時 BDT に一時的に
風向・風速西 13m/s 瞬間風速 18m/s
視程2000m
22日1時 BDT ~ 22日3時 BDT に徐々に
風向・風速南 4m/s
視程3500m
天気現象煙霧
全天の4割程度の雲 雲底高度 370m
全天の8割程度の雲 雲底高度 3050m
22日3時 BDT ~ 22日12時 BDT に一時的に
風向・風速西 13m/s 瞬間風速 18m/s
視程2000m
TAF VGHS 202300Z 2100/2206 16005KT 3500 HZ SCT012 BKN100
BECMG 2104/2106 18010KT 4000 HZ SCT015 BKN100
TEMPO 2100/2112 27025G35KT 2000 RA/TSRA BKN007 FEW025CB OVC090
BECMG 2119/2121 17008KT 3500 HZ SCT012 BKN100
TEMPO 2121/2206 26025G35KT 2000 RA/TSRA BKN007 FEW025CB OVC090